createdAt,value
2019-02-20T00:00:23.703Z,3.50
2019-02-20T00:01:42.506Z,3.50
2019-02-20T00:02:58.808Z,3.50
2019-02-20T00:04:15.961Z,3.50
2019-02-20T00:05:32.495Z,3.40
2019-02-20T00:06:49.299Z,3.40
2019-02-20T00:08:06.183Z,3.40
2019-02-20T00:09:22.686Z,3.30
2019-02-20T00:10:38.989Z,3.30
2019-02-20T00:11:55.589Z,3.20
2019-02-20T00:13:12.489Z,3.20
2019-02-20T00:14:28.874Z,3.10
2019-02-20T00:15:44.056Z,3.20
2019-02-20T00:17:08.221Z,3.10
2019-02-20T00:18:25.369Z,3.20
2019-02-20T00:19:42.780Z,3.10
2019-02-20T00:20:59.321Z,3.20
2019-02-20T00:22:15.696Z,3.10
2019-02-20T00:23:32.971Z,3.00
2019-02-20T00:24:50.185Z,3.00
2019-02-20T00:26:06.655Z,3.00
2019-02-20T00:27:24.513Z,3.00
2019-02-20T00:28:41.344Z,3.00
2019-02-20T00:29:58.508Z,3.00
2019-02-20T00:31:15.076Z,3.00
2019-02-20T00:32:31.508Z,3.10
2019-02-20T00:33:48.476Z,3.00
2019-02-20T00:35:05.404Z,3.00
2019-02-20T00:36:21.973Z,3.00
2019-02-20T00:37:39.141Z,3.00
2019-02-20T00:38:55.438Z,2.90
2019-02-20T00:40:11.975Z,3.00
2019-02-20T00:41:29.441Z,3.00
2019-02-20T00:42:46.348Z,3.00
2019-02-20T00:44:21.654Z,3.00
2019-02-20T00:45:57.197Z,3.00
2019-02-20T00:47:32.500Z,3.00
2019-02-20T00:48:56.862Z,3.00
2019-02-20T00:50:14.217Z,2.90
2019-02-20T00:53:17.314Z,3.00
2019-02-20T00:54:33.993Z,2.90
2019-02-20T00:55:50.657Z,2.90
2019-02-20T00:57:07.140Z,2.90
2019-02-20T00:58:22.430Z,2.90
2019-02-20T00:59:46.575Z,2.90
2019-02-20T01:01:03.536Z,2.90
2019-02-20T01:02:19.909Z,2.90
2019-02-20T01:03:36.662Z,2.90
2019-02-20T01:04:53.189Z,2.90
2019-02-20T01:06:09.611Z,2.90
2019-02-20T01:07:26.301Z,2.90
2019-02-20T01:08:42.789Z,2.80
2019-02-20T01:09:59.234Z,2.80
2019-02-20T01:11:15.628Z,2.80
2019-02-20T01:12:32.103Z,2.80
2019-02-20T01:13:48.605Z,2.80
2019-02-20T01:15:05.286Z,2.80
2019-02-20T01:16:24.501Z,2.80
2019-02-20T01:17:42.158Z,2.80
2019-02-20T01:18:58.560Z,2.80
2019-02-20T01:20:15.048Z,2.80
2019-02-20T01:21:31.640Z,2.80
2019-02-20T01:22:48.070Z,2.80
2019-02-20T01:24:04.358Z,2.80
2019-02-20T01:25:20.880Z,2.90
2019-02-20T01:26:38.148Z,2.80
2019-02-20T01:27:54.781Z,2.80
2019-02-20T01:29:11.276Z,2.80
2019-02-20T01:30:28.056Z,2.80
2019-02-20T01:31:44.544Z,2.80
2019-02-20T01:33:01.775Z,2.80
2019-02-20T01:34:18.969Z,2.70
2019-02-20T01:35:35.369Z,2.70
2019-02-20T01:36:51.718Z,2.70
2019-02-20T01:38:08.642Z,2.70
2019-02-20T01:39:25.757Z,2.70
2019-02-20T01:40:42.844Z,2.70
2019-02-20T01:41:59.520Z,2.60
2019-02-20T01:43:15.825Z,2.60
2019-02-20T01:44:32.527Z,2.60
2019-02-20T01:45:48.916Z,2.50
2019-02-20T01:47:06.477Z,2.50
2019-02-20T01:48:23.658Z,2.50
2019-02-20T01:49:40.177Z,2.50
2019-02-20T01:50:57.150Z,2.50
2019-02-20T01:52:13.534Z,2.40
2019-02-20T01:53:29.841Z,2.40
2019-02-20T01:54:46.757Z,2.40
2019-02-20T01:56:03.361Z,2.40
2019-02-20T01:57:20.290Z,2.40
2019-02-20T01:58:36.820Z,2.40
2019-02-20T01:59:53.657Z,2.40
2019-02-20T02:01:10.849Z,2.40
2019-02-20T02:02:27.383Z,2.30
2019-02-20T02:03:43.671Z,2.20
2019-02-20T02:05:00.220Z,2.20
2019-02-20T02:06:16.774Z,2.10
2019-02-20T02:07:33.341Z,2.20
2019-02-20T02:08:49.753Z,2.20
2019-02-20T02:10:06.817Z,2.20
2019-02-20T02:11:23.328Z,2.20
2019-02-20T02:12:39.925Z,2.30
2019-02-20T02:13:56.363Z,2.20
2019-02-20T02:15:20.059Z,2.30
2019-02-20T02:16:31.321Z,2.30
2019-02-20T02:17:47.637Z,2.30
2019-02-20T02:19:04.201Z,2.30
2019-02-20T02:20:21.205Z,2.30
2019-02-20T02:21:38.385Z,2.30
2019-02-20T02:22:54.689Z,2.30
2019-02-20T02:24:11.278Z,2.30
2019-02-20T02:25:28.353Z,2.30
2019-02-20T02:26:44.879Z,2.30
2019-02-20T02:28:01.549Z,2.30
2019-02-20T02:29:17.997Z,2.30
2019-02-20T02:30:34.644Z,2.30
2019-02-20T02:31:51.299Z,2.10
2019-02-20T02:33:08.457Z,2.00
2019-02-20T02:34:26.361Z,2.00
2019-02-20T02:35:43.097Z,2.00
2019-02-20T02:36:59.596Z,1.90
2019-02-20T02:38:16.323Z,2.00
2019-02-20T02:39:32.826Z,1.90
2019-02-20T02:40:47.968Z,2.00
2019-02-20T02:42:12.148Z,2.00
2019-02-20T02:43:28.448Z,2.00
2019-02-20T02:44:45.850Z,2.00
2019-02-20T02:46:02.927Z,2.00
2019-02-20T02:47:21.560Z,2.00
2019-02-20T02:48:38.123Z,2.00
2019-02-20T02:49:54.585Z,2.10
2019-02-20T02:51:11.609Z,2.10
2019-02-20T02:52:28.221Z,2.10
2019-02-20T02:53:44.525Z,2.10
2019-02-20T02:55:01.015Z,2.20
2019-02-20T02:56:18.212Z,2.20
2019-02-20T02:57:34.903Z,2.20
2019-02-20T02:58:52.074Z,2.10
2019-02-20T03:00:08.651Z,2.10
2019-02-20T03:01:25.102Z,2.20
2019-02-20T03:02:41.511Z,2.20
2019-02-20T03:03:57.971Z,2.10
2019-02-20T03:05:14.300Z,2.10
2019-02-20T03:06:31.034Z,2.00
2019-02-20T03:07:46.225Z,2.00
2019-02-20T03:09:10.393Z,1.90
2019-02-20T03:10:36.125Z,1.90
2019-02-20T03:11:52.606Z,1.90
2019-02-20T03:13:09.832Z,1.80
2019-02-20T03:14:26.376Z,1.80
2019-02-20T03:15:43.838Z,1.80
2019-02-20T03:17:00.247Z,1.80
2019-02-20T03:18:16.749Z,1.80
2019-02-20T03:19:33.084Z,1.70
2019-02-20T03:20:49.764Z,1.70
2019-02-20T03:22:06.281Z,1.70
2019-02-20T03:23:23.152Z,1.70
2019-02-20T03:24:39.860Z,1.70
2019-02-20T03:25:56.808Z,1.80
2019-02-20T03:27:13.147Z,1.80
2019-02-20T03:28:29.845Z,1.80
2019-02-20T03:29:47.148Z,1.80
2019-02-20T03:31:04.378Z,1.80
2019-02-20T03:32:20.821Z,1.80
2019-02-20T03:33:37.607Z,1.80
2019-02-20T03:34:54.073Z,1.80
2019-02-20T03:36:10.704Z,1.80
2019-02-20T03:37:27.392Z,1.80
2019-02-20T03:38:43.753Z,1.80
2019-02-20T03:40:00.802Z,1.80
2019-02-20T03:41:18.650Z,1.80
2019-02-20T03:42:35.465Z,1.80
2019-02-20T03:43:52.037Z,1.80
2019-02-20T03:45:08.664Z,1.80
2019-02-20T03:46:25.076Z,1.80
2019-02-20T03:47:41.944Z,1.80
2019-02-20T03:48:58.495Z,1.80
2019-02-20T03:50:14.941Z,1.80
2019-02-20T03:51:31.620Z,1.70
2019-02-20T03:52:47.978Z,1.80
2019-02-20T03:54:04.381Z,1.70
2019-02-20T03:55:21.035Z,1.70
2019-02-20T03:56:39.464Z,1.70
2019-02-20T03:57:56.731Z,1.70
2019-02-20T03:59:13.255Z,1.70
2019-02-20T04:00:29.929Z,1.70
2019-02-20T04:01:47.051Z,1.70
2019-02-20T04:03:03.424Z,1.70
2019-02-20T04:04:20.533Z,1.70
2019-02-20T04:05:36.948Z,1.70
2019-02-20T04:06:53.386Z,1.60
2019-02-20T04:08:09.736Z,1.60
2019-02-20T04:09:26.250Z,1.60
2019-02-20T04:10:42.840Z,1.60
2019-02-20T04:11:59.363Z,1.60
2019-02-20T04:13:15.897Z,1.60
2019-02-20T04:14:32.396Z,1.60
2019-02-20T04:15:48.728Z,1.60
2019-02-20T04:17:05.783Z,1.60
2019-02-20T04:18:22.673Z,1.60
2019-02-20T04:19:38.940Z,1.70
2019-02-20T04:20:55.553Z,1.70
2019-02-20T04:22:12.681Z,1.80
2019-02-20T04:23:29.034Z,1.80
2019-02-20T04:24:45.522Z,1.90
2019-02-20T04:26:02.683Z,2.00
2019-02-20T04:27:18.969Z,2.00
2019-02-20T04:28:35.629Z,2.00
2019-02-20T04:29:52.259Z,2.10
2019-02-20T04:31:09.417Z,2.10
2019-02-20T04:32:26.378Z,2.20
2019-02-20T04:33:42.701Z,2.20
2019-02-20T04:34:59.133Z,2.30
2019-02-20T04:36:15.806Z,2.30
2019-02-20T04:37:32.682Z,2.30
2019-02-20T04:38:49.104Z,2.30
2019-02-20T04:40:05.568Z,2.40
2019-02-20T04:41:20.816Z,2.40
2019-02-20T04:42:44.917Z,2.50
2019-02-20T04:44:02.190Z,2.50
2019-02-20T04:45:18.853Z,2.60
2019-02-20T04:46:35.289Z,2.70
2019-02-20T04:47:51.771Z,2.70
2019-02-20T04:49:08.496Z,2.80
2019-02-20T04:50:25.209Z,2.90
2019-02-20T04:51:41.893Z,2.90
2019-02-20T04:52:58.201Z,3.00
2019-02-20T04:54:15.418Z,3.10
2019-02-20T04:55:31.759Z,3.10
2019-02-20T04:56:48.615Z,3.10
2019-02-20T04:58:05.044Z,3.10
2019-02-20T04:59:22.257Z,3.20
2019-02-20T05:00:39.078Z,3.20
2019-02-20T05:01:55.597Z,3.20
2019-02-20T05:03:11.861Z,3.20
2019-02-20T05:04:28.729Z,3.20
2019-02-20T05:05:48.847Z,3.20
2019-02-20T05:07:05.141Z,3.20
2019-02-20T05:08:21.907Z,3.10
2019-02-20T05:09:39.778Z,3.10
2019-02-20T05:10:57.918Z,3.10
2019-02-20T05:12:14.430Z,3.10
2019-02-20T05:13:30.818Z,3.10
2019-02-20T05:14:47.280Z,3.20
2019-02-20T05:16:03.793Z,3.20
2019-02-20T05:17:21.035Z,3.20
2019-02-20T05:18:37.641Z,3.30
2019-02-20T05:19:53.996Z,3.30
2019-02-20T05:21:10.578Z,3.30
2019-02-20T05:22:27.900Z,3.40
2019-02-20T05:23:44.529Z,3.30
2019-02-20T05:25:01.244Z,3.40
2019-02-20T05:26:18.933Z,3.40
2019-02-20T05:27:35.294Z,3.50
2019-02-20T05:28:51.913Z,3.50
2019-02-20T05:30:08.200Z,3.60
2019-02-20T05:31:24.749Z,3.60
2019-02-20T05:32:41.244Z,3.60
2019-02-20T05:33:58.031Z,3.70
2019-02-20T05:35:14.497Z,3.70
2019-02-20T05:36:31.479Z,3.70
2019-02-20T05:37:48.138Z,3.70
2019-02-20T05:39:05.421Z,3.80
2019-02-20T05:40:24.777Z,3.80
2019-02-20T05:41:41.878Z,3.80
2019-02-20T05:42:59.112Z,3.80
2019-02-20T05:44:16.351Z,3.80
2019-02-20T05:45:33.988Z,3.80
2019-02-20T05:46:50.829Z,3.90
2019-02-20T05:48:08.119Z,3.90
2019-02-20T05:49:24.504Z,3.90
2019-02-20T05:50:40.997Z,3.90
2019-02-20T05:51:57.235Z,3.90
2019-02-20T05:53:13.853Z,3.90
2019-02-20T05:54:18.999Z,3.90
2019-02-20T05:55:24.105Z,4.00
2019-02-20T05:56:29.143Z,4.00
2019-02-20T05:57:36.415Z,4.00
2019-02-20T05:58:41.230Z,4.00
2019-02-20T05:59:46.378Z,4.00
2019-02-20T06:00:51.645Z,4.00
2019-02-20T06:01:56.681Z,4.00
2019-02-20T06:03:02.008Z,4.00
2019-02-20T06:04:08.182Z,4.00
2019-02-20T06:05:13.259Z,4.00
2019-02-20T06:06:18.402Z,4.10
2019-02-20T06:07:23.514Z,4.10
2019-02-20T06:08:28.546Z,4.10
2019-02-20T06:09:33.578Z,4.10
2019-02-20T06:10:38.711Z,4.10
2019-02-20T06:11:44.114Z,4.10
2019-02-20T06:12:49.214Z,4.10
2019-02-20T06:13:56.361Z,4.20
2019-02-20T06:15:01.453Z,4.20
2019-02-20T06:16:06.622Z,4.20
2019-02-20T06:17:11.634Z,4.20
2019-02-20T06:18:16.761Z,4.20
2019-02-20T06:19:21.893Z,4.20
2019-02-20T06:20:27.014Z,4.20
2019-02-20T06:21:32.133Z,4.20
2019-02-20T06:22:38.308Z,4.20
2019-02-20T06:23:43.438Z,4.20
2019-02-20T06:24:48.560Z,4.20
2019-02-20T06:25:53.706Z,4.20
2019-02-20T06:26:58.849Z,4.20
2019-02-20T06:28:04.192Z,4.20
2019-02-20T06:29:09.243Z,4.20
2019-02-20T06:30:14.385Z,4.20
2019-02-20T06:31:19.521Z,4.20
2019-02-20T06:32:24.571Z,4.20
2019-02-20T06:33:29.612Z,4.20
2019-02-20T06:34:34.758Z,4.20
2019-02-20T06:35:39.811Z,4.20
2019-02-20T06:36:44.873Z,4.20
2019-02-20T06:37:49.915Z,4.20
2019-02-20T06:38:55.063Z,4.20
2019-02-20T06:40:00.308Z,4.20
2019-02-20T06:41:05.546Z,4.10
2019-02-20T06:42:13.542Z,4.00
2019-02-20T06:43:18.589Z,3.90
2019-02-20T06:44:23.662Z,3.80
2019-02-20T06:45:28.769Z,3.80
2019-02-20T06:46:33.976Z,3.70
2019-02-20T06:47:39.084Z,3.80
2019-02-20T06:48:44.223Z,3.80
2019-02-20T06:49:49.250Z,3.80
2019-02-20T06:50:54.393Z,3.90
2019-02-20T06:51:59.504Z,3.80
2019-02-20T06:53:04.623Z,3.80
2019-02-20T06:54:09.796Z,3.70
2019-02-20T06:55:14.985Z,3.80
2019-02-20T06:56:20.576Z,3.90
2019-02-20T06:57:25.593Z,3.90
2019-02-20T06:58:30.961Z,3.80
2019-02-20T06:59:35.989Z,3.90
2019-02-20T07:00:41.109Z,3.90
2019-02-20T07:01:46.354Z,4.00
2019-02-20T07:02:51.475Z,4.00
2019-02-20T07:03:56.586Z,4.10
2019-02-20T07:05:35.469Z,4.10
2019-02-20T07:07:13.812Z,4.10
2019-02-20T07:08:54.459Z,4.10
2019-02-20T07:10:39.544Z,4.20
2019-02-20T07:12:14.418Z,4.40
2019-02-20T07:13:43.483Z,4.50
2019-02-20T07:15:29.554Z,4.60
2019-02-20T07:17:14.646Z,4.70
2019-02-20T07:18:54.645Z,4.80
2019-02-20T07:20:25.274Z,4.90
2019-02-20T07:22:23.680Z,4.90
2019-02-20T07:23:52.141Z,5.00
2019-02-20T07:25:28.048Z,5.10
2019-02-20T07:26:55.667Z,5.20
2019-02-20T07:28:30.012Z,5.30
2019-02-20T07:30:00.535Z,5.50
2019-02-20T07:31:07.083Z,5.50
2019-02-20T07:32:14.744Z,5.60
2019-02-20T07:33:19.880Z,5.70
2019-02-20T07:34:24.924Z,5.70
2019-02-20T07:35:30.033Z,5.80
2019-02-20T07:36:35.153Z,5.90
2019-02-20T07:37:40.276Z,6.00
2019-02-20T07:38:45.375Z,6.10
2019-02-20T07:39:51.768Z,6.10
2019-02-20T07:40:56.906Z,6.20
2019-02-20T07:42:02.038Z,6.30
2019-02-20T07:43:08.474Z,6.40
2019-02-20T07:44:13.578Z,6.60
2019-02-20T07:45:18.628Z,6.70
2019-02-20T07:46:23.824Z,6.80
2019-02-20T07:47:29.000Z,6.90
2019-02-20T07:48:34.156Z,7.00
2019-02-20T07:49:39.270Z,7.00
2019-02-20T07:50:44.406Z,7.20
2019-02-20T07:51:49.513Z,7.30
2019-02-20T07:52:54.628Z,7.50
2019-02-20T07:53:59.823Z,7.60
2019-02-20T07:55:12.910Z,7.80
2019-02-20T07:56:11.803Z,7.90
2019-02-20T07:57:16.933Z,8.10
2019-02-20T07:58:22.079Z,8.30
2019-02-20T07:59:27.177Z,8.60
2019-02-20T08:00:33.388Z,8.80
2019-02-20T08:01:38.604Z,9.00
2019-02-20T08:02:43.709Z,9.20
2019-02-20T08:03:48.846Z,9.50
2019-02-20T08:04:54.978Z,9.70
2019-02-20T08:06:00.151Z,10.00
2019-02-20T08:07:05.300Z,10.40
2019-02-20T08:08:10.442Z,10.90
2019-02-20T08:09:15.600Z,11.60
2019-02-20T08:10:20.790Z,12.40
2019-02-20T08:11:25.913Z,13.20
2019-02-20T08:12:31.035Z,14.00
2019-02-20T08:13:39.218Z,14.90
2019-02-20T08:14:42.901Z,15.90
2019-02-20T08:15:48.025Z,16.90
2019-02-20T08:16:53.172Z,17.90
2019-02-20T08:17:58.232Z,18.80
2019-02-20T08:19:03.396Z,19.40
2019-02-20T08:20:10.181Z,19.60
2019-02-20T08:21:15.373Z,19.40
2019-02-20T08:22:20.574Z,19.20
2019-02-20T08:23:25.760Z,19.40
2019-02-20T08:24:32.548Z,19.70
2019-02-20T08:25:37.661Z,19.90
2019-02-20T08:26:42.780Z,20.00
2019-02-20T08:27:47.881Z,20.20
2019-02-20T08:28:52.987Z,20.00
2019-02-20T08:29:58.124Z,19.90
2019-02-20T08:31:03.279Z,19.80
2019-02-20T08:32:08.368Z,19.60
2019-02-20T08:33:13.980Z,19.50
2019-02-20T08:34:19.046Z,19.60
2019-02-20T08:35:24.192Z,20.00
2019-02-20T08:36:29.320Z,20.50
2019-02-20T08:37:34.444Z,21.30
2019-02-20T08:38:39.555Z,22.00
2019-02-20T08:39:44.692Z,22.60
2019-02-20T08:40:49.753Z,23.20
2019-02-20T08:41:54.800Z,23.80
2019-02-20T08:42:59.826Z,24.50
2019-02-20T08:44:05.977Z,25.20
2019-02-20T08:45:11.334Z,25.70
2019-02-20T08:46:16.437Z,26.30
2019-02-20T08:47:21.557Z,26.80
2019-02-20T08:48:26.622Z,27.40
2019-02-20T08:49:31.647Z,28.00
2019-02-20T08:50:36.777Z,28.40
2019-02-20T08:51:41.868Z,29.00
2019-02-20T08:52:47.054Z,29.50
2019-02-20T08:53:52.186Z,29.90
2019-02-20T08:54:57.219Z,30.20
2019-02-20T08:56:02.317Z,30.50
2019-02-20T08:57:07.520Z,30.70
2019-02-20T08:58:12.678Z,30.60
2019-02-20T08:59:17.779Z,30.50
2019-02-20T09:00:22.825Z,30.80
2019-02-20T09:01:28.013Z,31.10
2019-02-20T09:02:33.126Z,31.30
2019-02-20T09:03:38.208Z,31.70
2019-02-20T09:04:43.237Z,32.00
2019-02-20T09:05:48.353Z,32.30
2019-02-20T09:06:53.359Z,32.70
2019-02-20T09:07:59.454Z,32.80
2019-02-20T09:09:06.391Z,32.70
2019-02-20T09:10:13.140Z,32.80
2019-02-20T09:11:18.209Z,33.00
2019-02-20T09:12:23.311Z,33.20
2019-02-20T09:13:28.425Z,33.50
2019-02-20T09:14:34.576Z,33.80
2019-02-20T09:15:39.655Z,34.10
2019-02-20T09:16:44.720Z,34.30
2019-02-20T09:17:49.747Z,34.20
2019-02-20T09:18:54.780Z,34.20
2019-02-20T09:19:59.938Z,33.90
2019-02-20T09:21:05.063Z,33.80
2019-02-20T09:22:10.122Z,33.20
2019-02-20T09:23:15.129Z,33.10
2019-02-20T09:24:20.266Z,33.00
2019-02-20T09:25:25.368Z,33.10
2019-02-20T09:26:30.504Z,32.90
2019-02-20T09:27:35.545Z,32.90
2019-02-20T09:28:40.638Z,33.20
2019-02-20T09:29:46.881Z,33.60
2019-02-20T09:30:51.941Z,33.70
2019-02-20T09:31:57.061Z,33.70
2019-02-20T09:33:02.240Z,34.10
2019-02-20T09:34:07.502Z,34.00
2019-02-20T09:35:12.951Z,34.30
2019-02-20T09:36:17.984Z,34.60
2019-02-20T09:37:23.167Z,34.90
2019-02-20T09:38:29.363Z,35.20
2019-02-20T09:39:36.176Z,35.50
2019-02-20T09:40:41.341Z,35.90
2019-02-20T09:41:46.484Z,36.10
2019-02-20T09:42:51.773Z,36.30
2019-02-20T09:43:56.837Z,36.50
2019-02-20T09:45:01.990Z,36.70
2019-02-20T09:46:08.180Z,36.90
2019-02-20T09:47:13.605Z,36.90
2019-02-20T09:48:19.768Z,36.90
2019-02-20T09:49:24.891Z,37.00
2019-02-20T09:50:29.944Z,37.00
2019-02-20T09:51:34.979Z,37.00
2019-02-20T09:52:40.053Z,36.70
2019-02-20T09:53:45.161Z,37.00
2019-02-20T09:54:50.224Z,37.20
2019-02-20T09:55:55.353Z,37.20
2019-02-20T09:57:01.586Z,37.30
2019-02-20T09:58:06.724Z,37.00
2019-02-20T09:59:11.860Z,37.10
2019-02-20T10:00:16.976Z,37.10
2019-02-20T10:01:22.104Z,37.10
2019-02-20T10:02:27.292Z,37.20
2019-02-20T10:03:32.468Z,36.90
2019-02-20T10:04:37.592Z,37.00
2019-02-20T10:05:42.707Z,37.20
2019-02-20T10:06:47.899Z,37.30
2019-02-20T10:07:52.982Z,37.50
2019-02-20T10:08:58.049Z,37.60
2019-02-20T10:10:03.236Z,37.70
2019-02-20T10:11:08.402Z,37.80
2019-02-20T10:12:13.432Z,37.60
2019-02-20T10:13:18.536Z,37.50
2019-02-20T10:14:23.614Z,37.20
2019-02-20T10:15:29.072Z,37.10
2019-02-20T10:16:34.279Z,36.10
2019-02-20T10:17:39.481Z,35.80
2019-02-20T10:18:44.645Z,35.40
2019-02-20T10:19:50.897Z,34.50
2019-02-20T10:20:56.232Z,34.10
2019-02-20T10:22:01.393Z,33.60
2019-02-20T10:23:06.590Z,33.20
2019-02-20T10:24:11.895Z,32.60
2019-02-20T10:25:16.994Z,32.30
2019-02-20T10:26:22.050Z,32.20
2019-02-20T10:27:27.145Z,31.70
2019-02-20T10:28:32.213Z,31.60
2019-02-20T10:29:37.243Z,31.70
2019-02-20T10:30:42.248Z,31.70
2019-02-20T10:31:50.035Z,31.80
2019-02-20T10:32:55.068Z,31.50
2019-02-20T10:34:00.104Z,31.60
2019-02-20T10:35:05.752Z,30.80
2019-02-20T10:36:10.871Z,30.40
2019-02-20T10:37:16.001Z,30.30
2019-02-20T10:38:21.169Z,30.60
2019-02-20T10:39:26.264Z,30.70
2019-02-20T10:40:31.482Z,30.80
2019-02-20T10:41:36.878Z,31.00
2019-02-20T10:42:41.990Z,31.10
2019-02-20T10:43:47.041Z,31.20
2019-02-20T10:44:52.183Z,31.20
2019-02-20T10:45:57.295Z,31.20
2019-02-20T10:47:02.668Z,31.20
2019-02-20T10:48:07.873Z,31.00
2019-02-20T10:49:13.045Z,30.80
2019-02-20T10:50:18.153Z,30.30
2019-02-20T10:51:23.273Z,29.20
2019-02-20T10:52:28.324Z,29.20
2019-02-20T10:53:33.377Z,29.10
2019-02-20T10:54:38.548Z,28.80
2019-02-20T10:55:43.688Z,28.30
2019-02-20T10:56:48.702Z,27.90
2019-02-20T10:57:53.793Z,27.40
2019-02-20T10:58:58.921Z,27.20
2019-02-20T11:00:07.080Z,27.10
2019-02-20T11:01:13.813Z,26.90
2019-02-20T11:02:18.989Z,26.50
2019-02-20T11:03:24.102Z,26.20
2019-02-20T11:04:30.831Z,25.90
2019-02-20T11:05:36.220Z,25.60
2019-02-20T11:06:41.388Z,25.00
2019-02-20T11:07:46.577Z,24.40
2019-02-20T11:08:51.786Z,24.10
2019-02-20T11:09:56.902Z,23.70
2019-02-20T11:11:02.009Z,23.40
2019-02-20T11:12:08.232Z,23.00
2019-02-20T11:13:13.571Z,22.70
2019-02-20T11:14:18.762Z,21.90
2019-02-20T11:15:23.822Z,21.20
2019-02-20T11:16:29.046Z,21.00
2019-02-20T11:17:34.147Z,20.60
2019-02-20T11:18:39.245Z,19.90
2019-02-20T11:19:44.390Z,19.90
2019-02-20T11:20:49.454Z,19.90
2019-02-20T11:21:54.557Z,19.90
2019-02-20T11:22:59.585Z,19.80
2019-02-20T11:24:04.696Z,19.60
2019-02-20T11:25:12.926Z,19.50
2019-02-20T11:26:18.750Z,19.40
2019-02-20T11:27:24.003Z,19.40
2019-02-20T11:28:29.177Z,19.40
2019-02-20T11:29:34.315Z,19.20
2019-02-20T11:30:39.477Z,19.10
2019-02-20T11:31:44.596Z,19.20
2019-02-20T11:32:49.655Z,19.30
2019-02-20T11:33:54.769Z,19.30
2019-02-20T11:34:59.870Z,19.30
2019-02-20T11:36:05.020Z,19.20
2019-02-20T11:37:10.219Z,19.10
2019-02-20T11:38:16.487Z,19.00
2019-02-20T11:39:21.611Z,18.90
2019-02-20T11:40:26.680Z,18.90
2019-02-20T11:41:31.893Z,18.90
2019-02-20T11:42:37.013Z,18.80
2019-02-20T11:43:42.127Z,18.80
2019-02-20T11:44:47.258Z,18.90
2019-02-20T11:45:52.384Z,19.00
2019-02-20T11:46:57.399Z,19.00
2019-02-20T11:48:02.532Z,19.10
2019-02-20T11:49:07.642Z,19.20
2019-02-20T11:50:12.856Z,19.10
2019-02-20T11:51:18.008Z,19.10
2019-02-20T11:52:23.144Z,19.10
2019-02-20T11:53:36.833Z,19.30
2019-02-20T11:54:35.067Z,19.30
2019-02-20T11:55:51.441Z,19.40
2019-02-20T11:57:08.476Z,19.50
2019-02-20T11:58:25.048Z,19.30
2019-02-20T11:59:41.564Z,19.30
2019-02-20T12:00:58.261Z,19.10
2019-02-20T12:02:15.889Z,18.90
2019-02-20T12:03:34.363Z,18.70
2019-02-20T12:04:51.596Z,18.50
2019-02-20T12:06:08.094Z,18.30
2019-02-20T12:07:25.442Z,18.10
2019-02-20T12:08:30.582Z,17.80
2019-02-20T12:09:35.694Z,17.60
2019-02-20T12:10:41.005Z,17.50
2019-02-20T12:11:46.137Z,17.30
2019-02-20T12:12:51.278Z,17.20
2019-02-20T12:13:57.467Z,17.00
2019-02-20T12:15:03.666Z,16.90
2019-02-20T12:16:08.833Z,16.80
2019-02-20T12:17:13.944Z,16.60
2019-02-20T12:18:19.176Z,16.50
2019-02-20T12:19:24.286Z,16.20
2019-02-20T12:20:29.417Z,15.90
2019-02-20T12:21:37.377Z,15.80
2019-02-20T12:22:42.596Z,15.60
2019-02-20T12:23:47.794Z,15.30
2019-02-20T12:24:54.784Z,15.10
2019-02-20T12:25:59.686Z,14.70
2019-02-20T12:27:04.797Z,14.30
2019-02-20T12:28:09.906Z,14.20
2019-02-20T12:29:15.049Z,14.00
2019-02-20T12:30:20.176Z,14.10
2019-02-20T12:31:25.299Z,14.10
2019-02-20T12:32:30.973Z,14.30
2019-02-20T12:33:36.229Z,14.40
2019-02-20T12:34:41.372Z,14.40
2019-02-20T12:35:46.480Z,14.40
2019-02-20T12:36:51.607Z,14.50
2019-02-20T12:37:56.653Z,14.70
2019-02-20T12:39:01.773Z,14.70
2019-02-20T12:40:08.541Z,14.80
2019-02-20T12:41:13.668Z,14.80
2019-02-20T12:42:18.774Z,14.90
2019-02-20T12:43:23.929Z,14.90
2019-02-20T12:44:29.042Z,14.90
2019-02-20T12:45:34.209Z,14.80
2019-02-20T12:46:39.365Z,14.90
2019-02-20T12:47:44.405Z,14.90
2019-02-20T12:48:49.462Z,14.90
2019-02-20T12:49:57.605Z,14.90
2019-02-20T12:51:02.753Z,14.80
2019-02-20T12:52:07.832Z,14.90
2019-02-20T12:53:13.002Z,14.90
2019-02-20T12:54:18.209Z,15.00
2019-02-20T12:55:23.366Z,15.10
2019-02-20T12:56:28.553Z,15.20
2019-02-20T12:57:34.764Z,15.20
2019-02-20T12:58:39.942Z,15.20
2019-02-20T12:59:45.151Z,15.20
2019-02-20T13:00:50.252Z,15.30
2019-02-20T13:01:55.296Z,15.10
2019-02-20T13:03:00.473Z,15.10
2019-02-20T13:04:05.591Z,15.10
2019-02-20T13:05:10.864Z,15.10
2019-02-20T13:06:16.037Z,15.20
2019-02-20T13:07:21.144Z,15.20
2019-02-20T13:08:26.271Z,14.90
2019-02-20T13:09:33.180Z,14.90
2019-02-20T13:10:38.462Z,14.90
2019-02-20T13:11:43.593Z,14.90
2019-02-20T13:12:49.796Z,14.80
2019-02-20T13:13:54.918Z,14.80
2019-02-20T13:15:00.033Z,14.60
2019-02-20T13:16:09.578Z,14.50
2019-02-20T13:17:12.105Z,14.60
2019-02-20T13:18:17.314Z,14.70
2019-02-20T13:19:22.581Z,14.80
2019-02-20T13:20:27.758Z,14.80
2019-02-20T13:21:32.802Z,14.80
2019-02-20T13:22:37.869Z,14.80
2019-02-20T13:23:43.015Z,15.00
2019-02-20T13:24:48.148Z,15.10
2019-02-20T13:25:53.282Z,15.20
2019-02-20T13:26:58.399Z,15.10
2019-02-20T13:28:03.545Z,15.20
2019-02-20T13:29:08.750Z,15.30
2019-02-20T13:30:13.925Z,15.40
2019-02-20T13:31:19.179Z,15.50
2019-02-20T13:32:24.330Z,15.50
2019-02-20T13:33:29.444Z,15.60
2019-02-20T13:34:34.571Z,15.60
2019-02-20T13:35:39.710Z,15.70
2019-02-20T13:36:44.789Z,15.70
2019-02-20T13:37:49.838Z,15.80
2019-02-20T13:38:54.956Z,15.90
2019-02-20T13:40:00.216Z,16.00
2019-02-20T13:41:05.466Z,16.00
2019-02-20T13:42:10.598Z,16.00
2019-02-20T13:43:16.086Z,16.00
2019-02-20T13:44:21.512Z,15.90
2019-02-20T13:45:26.664Z,15.90
2019-02-20T13:46:31.760Z,15.90
2019-02-20T13:47:36.904Z,15.90
2019-02-20T13:48:41.929Z,15.90
2019-02-20T13:49:47.053Z,15.90
2019-02-20T13:50:52.304Z,15.90
2019-02-20T13:51:57.465Z,15.90
2019-02-20T13:53:02.673Z,15.80
2019-02-20T13:54:08.914Z,15.80
2019-02-20T13:55:14.007Z,15.80
2019-02-20T13:56:19.135Z,15.80
2019-02-20T13:57:24.391Z,15.80
2019-02-20T13:58:29.608Z,15.80
2019-02-20T13:59:34.697Z,15.80
2019-02-20T14:00:40.933Z,15.80
2019-02-20T14:01:46.029Z,15.80
2019-02-20T14:02:51.510Z,15.80
2019-02-20T14:03:56.928Z,15.80
2019-02-20T14:05:02.110Z,15.80
2019-02-20T14:06:07.255Z,15.60
2019-02-20T14:07:12.484Z,15.60
2019-02-20T14:08:17.609Z,15.60
2019-02-20T14:09:22.763Z,15.60
2019-02-20T14:10:27.924Z,15.60
2019-02-20T14:11:33.058Z,15.60
2019-02-20T14:12:38.165Z,15.60
2019-02-20T14:13:43.301Z,15.60
2019-02-20T14:14:48.469Z,15.50
2019-02-20T14:15:53.546Z,15.40
2019-02-20T14:16:58.657Z,15.40
2019-02-20T14:18:03.861Z,15.30
2019-02-20T14:19:10.110Z,15.20
2019-02-20T14:20:15.303Z,15.20
2019-02-20T14:21:20.369Z,15.20
2019-02-20T14:22:25.765Z,15.00
2019-02-20T14:23:31.036Z,15.10
2019-02-20T14:24:36.136Z,15.10
2019-02-20T14:25:44.363Z,15.20
2019-02-20T14:26:49.153Z,15.20
2019-02-20T14:27:54.341Z,15.30
2019-02-20T14:28:59.561Z,15.30
2019-02-20T14:30:04.910Z,15.30
2019-02-20T14:31:11.120Z,15.40
2019-02-20T14:32:16.198Z,15.50
2019-02-20T14:33:21.420Z,15.50
2019-02-20T14:34:26.612Z,15.50
2019-02-20T14:35:31.745Z,15.50
2019-02-20T14:36:36.880Z,15.50
2019-02-20T14:37:42.366Z,15.50
2019-02-20T14:38:47.556Z,15.40
2019-02-20T14:39:52.689Z,15.40
2019-02-20T14:40:57.788Z,15.40
2019-02-20T14:42:03.191Z,15.30
2019-02-20T14:43:08.540Z,15.30
2019-02-20T14:44:13.722Z,15.30
2019-02-20T14:45:18.890Z,15.30
2019-02-20T14:46:24.070Z,15.30
2019-02-20T14:47:29.192Z,15.30
2019-02-20T14:48:34.361Z,15.30
2019-02-20T14:49:39.489Z,15.30
2019-02-20T14:50:44.596Z,15.30
2019-02-20T14:51:49.739Z,15.30
2019-02-20T14:52:54.894Z,15.30
2019-02-20T14:54:00.128Z,15.30
2019-02-20T14:55:05.297Z,15.30
2019-02-20T14:56:10.534Z,15.30
2019-02-20T14:57:19.674Z,15.30
2019-02-20T14:58:22.578Z,15.30
2019-02-20T14:59:27.745Z,15.30
2019-02-20T15:00:32.862Z,15.30
2019-02-20T15:01:38.462Z,15.30
2019-02-20T15:02:44.083Z,15.30
2019-02-20T15:03:49.253Z,15.30
2019-02-20T15:04:54.390Z,15.30
2019-02-20T15:05:59.531Z,15.20
2019-02-20T15:07:04.713Z,15.20
2019-02-20T15:08:09.955Z,15.20
2019-02-20T15:09:15.077Z,15.20
2019-02-20T15:10:20.249Z,15.10
2019-02-20T15:11:25.450Z,15.10
2019-02-20T15:12:31.632Z,15.00
2019-02-20T15:13:36.804Z,14.90
2019-02-20T15:14:41.905Z,14.80
2019-02-20T15:15:47.484Z,14.80
2019-02-20T15:16:52.772Z,14.70
2019-02-20T15:17:57.907Z,14.60
2019-02-20T15:19:03.080Z,14.60
2019-02-20T15:20:08.386Z,14.50
2019-02-20T15:21:13.870Z,14.50